createdAt,value
2022-10-22T00:02:05.991Z,90.79
2022-10-22T00:04:51.728Z,90.87
2022-10-22T00:07:36.876Z,90.38
2022-10-22T00:10:22.731Z,90.80
2022-10-22T00:13:08.193Z,90.49
2022-10-22T00:15:53.615Z,90.45
2022-10-22T00:18:39.767Z,90.87
2022-10-22T00:21:25.843Z,91.12
2022-10-22T00:24:11.144Z,91.04
2022-10-22T00:26:56.629Z,90.75
2022-10-22T00:29:42.221Z,91.00
2022-10-22T00:32:27.450Z,90.93
2022-10-22T00:35:12.733Z,90.93
2022-10-22T00:37:58.133Z,90.63
2022-10-22T00:40:43.947Z,91.02
2022-10-22T00:43:29.156Z,90.49
2022-10-22T00:46:14.625Z,90.90
2022-10-22T00:49:04.275Z,90.66
2022-10-22T00:51:49.850Z,90.91
2022-10-22T00:54:35.704Z,90.74
2022-10-22T00:57:21.472Z,90.93
2022-10-22T01:00:07.664Z,90.88
2022-10-22T01:02:55.588Z,90.94
2022-10-22T01:05:43.116Z,90.69
2022-10-22T01:08:47.537Z,90.88
2022-10-22T01:11:51.481Z,91.11
2022-10-22T01:14:45.637Z,91.27
2022-10-22T01:17:45.868Z,90.95
2022-10-22T01:20:57.465Z,91.25
2022-10-22T01:23:45.931Z,91.03
2022-10-22T01:27:00.663Z,90.96
2022-10-22T01:29:57.818Z,90.83
2022-10-22T01:32:53.777Z,91.64
2022-10-22T01:35:44.503Z,91.16
2022-10-22T01:38:30.723Z,90.97
2022-10-22T01:41:16.404Z,90.86
2022-10-22T01:44:01.696Z,90.78
2022-10-22T01:46:51.303Z,90.85
2022-10-22T01:49:43.693Z,90.49
2022-10-22T01:52:38.506Z,90.95
2022-10-22T01:55:51.244Z,91.02
2022-10-22T01:58:42.611Z,90.87
2022-10-22T02:01:48.922Z,91.20
2022-10-22T02:04:49.855Z,90.75
2022-10-22T02:07:42.632Z,91.25
2022-10-22T02:10:30.194Z,91.13
2022-10-22T02:13:24.889Z,90.90
2022-10-22T02:16:14.707Z,91.16
2022-10-22T02:19:07.904Z,91.09
2022-10-22T02:21:54.606Z,91.36
2022-10-22T02:24:40.205Z,91.15
2022-10-22T02:27:48.406Z,91.29
2022-10-22T02:30:38.609Z,91.02
2022-10-22T02:33:31.374Z,91.27
2022-10-22T02:36:18.136Z,90.80
2022-10-22T02:39:04.963Z,91.16
2022-10-22T02:41:50.403Z,91.08
2022-10-22T02:44:35.732Z,91.17
2022-10-22T02:47:21.333Z,91.20
2022-10-22T02:50:09.541Z,91.56
2022-10-22T02:52:55.775Z,91.39
2022-10-22T02:55:41.327Z,90.92
2022-10-22T02:58:26.812Z,91.69
2022-10-22T03:01:15.345Z,91.45
2022-10-22T03:04:01.704Z,91.71
2022-10-22T03:06:48.870Z,91.03
2022-10-22T03:09:34.229Z,91.51
2022-10-22T03:12:19.703Z,91.15
2022-10-22T03:15:05.493Z,91.58
2022-10-22T03:17:51.083Z,91.58
2022-10-22T03:20:36.613Z,91.04
2022-10-22T03:23:21.926Z,91.11
2022-10-22T03:26:08.982Z,91.66
2022-10-22T03:28:54.895Z,91.45
2022-10-22T03:31:40.255Z,91.17
2022-10-22T03:34:25.723Z,91.22
2022-10-22T03:37:11.656Z,91.38
2022-10-22T03:39:57.307Z,91.03
2022-10-22T03:42:43.476Z,91.26
2022-10-22T03:45:28.966Z,91.72
2022-10-22T03:48:14.568Z,91.55
2022-10-22T03:50:59.941Z,91.34
2022-10-22T03:53:45.589Z,91.75
2022-10-22T03:56:30.963Z,91.48
2022-10-22T03:59:16.918Z,91.79
2022-10-22T04:02:02.669Z,91.79
2022-10-22T04:04:47.928Z,91.55
2022-10-22T04:07:33.224Z,91.86
2022-10-22T04:10:19.112Z,91.45
2022-10-22T04:13:04.638Z,91.61
2022-10-22T04:15:52.092Z,91.39
2022-10-22T04:18:38.969Z,91.45
2022-10-22T04:21:25.442Z,91.44
2022-10-22T04:24:10.907Z,91.38
2022-10-22T04:26:56.732Z,91.29
2022-10-22T04:29:42.293Z,91.98
2022-10-22T04:32:28.446Z,92.08
2022-10-22T04:35:14.348Z,91.92
2022-10-22T04:37:59.787Z,91.57
2022-10-22T04:40:45.196Z,91.41
2022-10-22T04:43:30.987Z,91.93
2022-10-22T04:46:18.546Z,91.97
2022-10-22T04:49:04.811Z,92.11
2022-10-22T04:51:50.474Z,91.68
2022-10-22T04:54:36.058Z,92.35
2022-10-22T04:57:21.264Z,91.61
2022-10-22T05:00:07.838Z,92.53
2022-10-22T05:02:53.113Z,91.96
2022-10-22T05:05:38.858Z,91.81
2022-10-22T05:08:24.016Z,92.51
2022-10-22T05:11:12.462Z,92.53
2022-10-22T05:14:00.047Z,92.68
2022-10-22T05:16:48.926Z,92.41
2022-10-22T05:19:34.943Z,92.71
2022-10-22T05:22:20.186Z,92.30
2022-10-22T05:25:06.102Z,92.85
2022-10-22T05:27:51.753Z,92.38
2022-10-22T05:30:38.186Z,92.45
2022-10-22T05:33:24.193Z,92.93
2022-10-22T05:36:13.407Z,92.57
2022-10-22T05:38:59.237Z,93.09
2022-10-22T05:41:44.863Z,92.98
2022-10-22T05:44:30.516Z,92.58
2022-10-22T05:47:16.103Z,92.45
2022-10-22T05:50:01.918Z,93.46
2022-10-22T05:52:47.103Z,93.16
2022-10-22T05:55:37.244Z,92.94
2022-10-22T05:58:22.882Z,93.13
2022-10-22T06:01:13.036Z,93.45
2022-10-22T06:04:00.675Z,93.32
2022-10-22T06:06:53.614Z,93.51
2022-10-22T06:09:39.717Z,93.75
2022-10-22T06:12:26.734Z,94.00
2022-10-22T06:15:13.434Z,93.79
2022-10-22T06:17:59.012Z,93.22
2022-10-22T06:20:45.525Z,93.62
2022-10-22T06:23:31.165Z,93.46
2022-10-22T06:26:17.910Z,93.98
2022-10-22T06:29:04.192Z,95.15
2022-10-22T06:31:49.899Z,95.92
2022-10-22T06:34:35.683Z,96.06
2022-10-22T06:37:21.261Z,97.08
2022-10-22T06:40:07.407Z,97.69
2022-10-22T06:42:53.112Z,97.61
2022-10-22T06:45:39.814Z,98.05
2022-10-22T06:48:25.376Z,98.62
2022-10-22T06:51:12.222Z,98.64
2022-10-22T06:53:58.738Z,98.80
2022-10-22T06:56:44.561Z,98.61
2022-10-22T06:59:29.934Z,98.69
2022-10-22T07:02:15.466Z,99.31
2022-10-22T07:05:00.839Z,99.24
2022-10-22T07:07:46.659Z,98.96
2022-10-22T07:10:32.371Z,98.95
2022-10-22T07:13:18.034Z,99.25
2022-10-22T07:16:05.043Z,98.81
2022-10-22T07:18:50.980Z,98.77
2022-10-22T07:21:36.772Z,98.69
2022-10-22T07:24:22.523Z,99.00
2022-10-22T07:27:10.874Z,98.95
2022-10-22T07:30:01.097Z,99.01
2022-10-22T07:32:46.287Z,99.05
2022-10-22T07:35:32.228Z,99.06
2022-10-22T07:38:17.592Z,98.95
2022-10-22T07:41:03.450Z,99.38
2022-10-22T07:43:49.316Z,99.15
2022-10-22T07:46:35.408Z,98.87
2022-10-22T07:49:20.889Z,98.87
2022-10-22T07:52:07.945Z,99.12
2022-10-22T07:54:53.514Z,99.07
2022-10-22T07:57:39.220Z,99.13
2022-10-22T08:00:25.479Z,98.97
2022-10-22T08:03:12.315Z,99.01
2022-10-22T08:05:58.836Z,98.93
2022-10-22T08:08:46.307Z,99.17
2022-10-22T08:11:33.599Z,99.42
2022-10-22T08:14:19.232Z,99.07
2022-10-22T08:17:04.793Z,99.02
2022-10-22T08:19:50.465Z,98.95
2022-10-22T08:22:36.210Z,99.37
2022-10-22T08:25:21.576Z,99.22
2022-10-22T08:28:07.212Z,99.22
2022-10-22T08:30:52.604Z,99.46
2022-10-22T08:33:39.088Z,99.43
2022-10-22T08:36:24.471Z,99.46
2022-10-22T08:39:10.026Z,99.28
2022-10-22T08:42:29.140Z,99.35
2022-10-22T08:45:35.991Z,99.82
2022-10-22T08:48:38.649Z,99.52
2022-10-22T08:51:33.111Z,99.63
2022-10-22T08:54:24.454Z,99.55
2022-10-22T08:57:19.117Z,99.79
2022-10-22T09:00:07.013Z,99.36
2022-10-22T09:03:17.025Z,99.96
2022-10-22T09:06:08.387Z,99.97
2022-10-22T09:08:56.729Z,99.86
2022-10-22T09:11:46.485Z,99.73
2022-10-22T09:14:32.357Z,100.00
2022-10-22T09:17:29.554Z,100.00
2022-10-22T09:20:28.729Z,100.00
2022-10-22T09:23:24.654Z,100.00
2022-10-22T09:26:15.299Z,100.00
2022-10-22T09:29:01.961Z,99.58
2022-10-22T09:31:47.378Z,99.80
2022-10-22T09:34:33.898Z,99.58
2022-10-22T09:37:25.755Z,99.38
2022-10-22T09:40:15.156Z,99.96
2022-10-22T09:43:01.027Z,99.69
2022-10-22T09:45:48.070Z,99.43
2022-10-22T09:48:37.425Z,99.93
2022-10-22T09:51:44.021Z,99.71
2022-10-22T09:54:32.535Z,98.96
2022-10-22T09:57:22.206Z,99.54
2022-10-22T10:00:10.189Z,99.09
2022-10-22T10:02:59.061Z,99.16
2022-10-22T10:05:48.928Z,99.39
2022-10-22T10:08:34.600Z,99.65
2022-10-22T10:11:28.063Z,99.14
2022-10-22T10:14:26.212Z,99.33
2022-10-22T10:17:27.290Z,98.79
2022-10-22T10:20:27.946Z,99.56
2022-10-22T10:23:37.695Z,98.59
2022-10-22T10:26:58.598Z,99.08
2022-10-22T10:30:06.679Z,98.93
2022-10-22T10:33:21.629Z,98.75
2022-10-22T10:36:28.276Z,98.93
2022-10-22T10:39:33.951Z,99.02
2022-10-22T10:42:55.978Z,98.48
2022-10-22T10:46:07.943Z,98.90
2022-10-22T10:48:59.361Z,98.57
2022-10-22T10:52:06.361Z,98.50
2022-10-22T10:55:09.692Z,98.13
2022-10-22T10:58:01.280Z,98.39
2022-10-22T11:00:56.686Z,98.17
2022-10-22T11:04:06.337Z,98.98
2022-10-22T11:07:10.789Z,98.40
2022-10-22T11:10:27.792Z,97.62
2022-10-22T11:13:16.032Z,98.04
2022-10-22T11:16:46.567Z,97.76
2022-10-22T11:19:50.965Z,97.99
2022-10-22T11:23:18.297Z,97.90
2022-10-22T11:26:11.503Z,98.05
2022-10-22T11:29:00.275Z,97.57
2022-10-22T11:31:46.474Z,97.72
2022-10-22T11:34:50.400Z,97.49
2022-10-22T11:37:39.149Z,97.55
2022-10-22T11:40:38.589Z,97.72
2022-10-22T11:43:28.466Z,97.45
2022-10-22T11:46:17.019Z,97.44
2022-10-22T11:49:19.109Z,97.16
2022-10-22T11:52:25.508Z,96.79
2022-10-22T11:55:48.572Z,96.96
2022-10-22T11:58:50.777Z,96.87
2022-10-22T12:01:43.199Z,96.90
2022-10-22T12:04:42.037Z,96.61
2022-10-22T12:07:49.516Z,96.64
2022-10-22T12:10:49.587Z,96.64
2022-10-22T12:13:52.631Z,96.25
2022-10-22T12:17:01.223Z,96.37
2022-10-22T12:20:11.214Z,96.26
2022-10-22T12:22:58.932Z,96.34
2022-10-22T12:25:44.077Z,96.05
2022-10-22T12:28:29.513Z,95.82
2022-10-22T12:31:16.831Z,95.63
2022-10-22T12:34:02.216Z,94.62
2022-10-22T12:36:49.915Z,95.31
2022-10-22T12:39:35.697Z,95.61
2022-10-22T12:42:23.831Z,95.29
2022-10-22T12:45:09.855Z,94.75
2022-10-22T12:48:14.556Z,95.21
2022-10-22T12:51:02.465Z,95.61
2022-10-22T12:53:51.649Z,95.47
2022-10-22T12:56:38.029Z,94.66
2022-10-22T12:59:35.446Z,95.00
2022-10-22T13:02:27.924Z,95.45
2022-10-22T13:05:39.177Z,95.40
2022-10-22T13:08:28.677Z,95.48
2022-10-22T13:11:14.166Z,95.77
2022-10-22T13:14:04.682Z,95.08
2022-10-22T13:17:05.878Z,95.23
2022-10-22T13:19:54.813Z,95.43
2022-10-22T13:22:42.270Z,95.08
2022-10-22T13:25:34.039Z,95.02
2022-10-22T13:28:21.767Z,94.84
2022-10-22T13:31:17.356Z,95.11
2022-10-22T13:34:09.831Z,95.21
2022-10-22T13:36:57.315Z,94.83
2022-10-22T13:39:42.857Z,94.54
2022-10-22T13:42:28.548Z,94.78
2022-10-22T13:45:15.171Z,95.03
2022-10-22T13:48:00.650Z,95.09
2022-10-22T13:50:45.823Z,95.11
2022-10-22T13:53:31.573Z,95.34
2022-10-22T13:56:18.288Z,95.37
2022-10-22T13:59:03.717Z,94.72
2022-10-22T14:01:49.297Z,94.92
2022-10-22T14:04:37.226Z,95.08
2022-10-22T14:07:22.317Z,93.67
2022-10-22T14:10:33.902Z,94.60
2022-10-22T14:13:20.864Z,94.85
2022-10-22T14:16:19.027Z,94.67
2022-10-22T14:19:07.044Z,95.24
2022-10-22T14:21:52.598Z,95.25
2022-10-22T14:24:38.004Z,95.58
2022-10-22T14:27:23.509Z,95.34
2022-10-22T14:30:09.737Z,95.06
2022-10-22T14:32:54.874Z,95.45
2022-10-22T14:35:40.388Z,95.21
2022-10-22T14:38:26.078Z,95.01
2022-10-22T14:41:23.385Z,95.19
2022-10-22T14:44:14.525Z,94.83
2022-10-22T14:47:00.514Z,95.42
2022-10-22T14:49:45.901Z,95.24
2022-10-22T14:52:31.384Z,95.73
2022-10-22T14:55:18.483Z,95.78
2022-10-22T14:58:04.309Z,95.40
2022-10-22T15:00:50.015Z,95.77
2022-10-22T15:03:36.313Z,95.21
2022-10-22T15:06:22.129Z,95.62
2022-10-22T15:09:07.432Z,95.56
2022-10-22T15:11:53.311Z,95.11
2022-10-22T15:14:38.924Z,95.54
2022-10-22T15:17:24.355Z,95.71
2022-10-22T15:20:09.989Z,94.87
2022-10-22T15:22:56.237Z,95.76
2022-10-22T15:25:43.923Z,95.41
2022-10-22T15:28:29.362Z,94.09
2022-10-22T15:31:15.560Z,95.41
2022-10-22T15:34:01.916Z,95.54
2022-10-22T15:36:47.689Z,95.00
2022-10-22T15:39:33.781Z,94.93
2022-10-22T15:42:19.465Z,95.31
2022-10-22T15:45:05.190Z,95.82
2022-10-22T15:47:50.926Z,95.66
2022-10-22T15:50:39.503Z,95.24
2022-10-22T15:53:25.182Z,95.04
2022-10-22T15:56:12.148Z,95.16
2022-10-22T15:59:00.629Z,94.56
2022-10-22T16:01:46.257Z,95.15
2022-10-22T16:04:31.484Z,95.16
2022-10-22T16:07:19.876Z,95.24
2022-10-22T16:10:08.241Z,95.50
2022-10-22T16:12:54.714Z,95.14
2022-10-22T16:15:40.137Z,95.13
2022-10-22T16:18:25.944Z,95.57
2022-10-22T16:21:15.195Z,95.36
2022-10-22T16:24:06.000Z,95.63
2022-10-22T16:26:53.311Z,94.83
2022-10-22T16:29:39.546Z,95.30
2022-10-22T16:32:25.134Z,95.61
2022-10-22T16:35:10.820Z,95.18
2022-10-22T16:37:56.198Z,95.30
2022-10-22T16:40:43.046Z,95.47
2022-10-22T16:43:29.478Z,95.22
2022-10-22T16:46:17.366Z,95.15
2022-10-22T16:49:02.481Z,94.93
2022-10-22T16:51:48.236Z,95.52
2022-10-22T16:54:33.612Z,95.22
2022-10-22T16:57:19.036Z,95.78
2022-10-22T17:00:05.748Z,95.73
2022-10-22T17:02:53.385Z,95.80
2022-10-22T17:05:38.843Z,95.61
2022-10-22T17:08:24.221Z,95.96
2022-10-22T17:11:12.459Z,95.68
2022-10-22T17:13:58.476Z,96.15
2022-10-22T17:16:44.923Z,95.69
2022-10-22T17:19:30.594Z,95.60
2022-10-22T17:22:18.386Z,95.78
2022-10-22T17:25:30.075Z,96.14
2022-10-22T17:28:15.563Z,96.33
2022-10-22T17:31:32.577Z,96.27
2022-10-22T17:34:18.219Z,95.96
2022-10-22T17:37:03.754Z,96.20
2022-10-22T17:39:49.131Z,95.71
2022-10-22T17:42:34.819Z,95.74
2022-10-22T17:45:20.475Z,95.71
2022-10-22T17:48:06.209Z,95.67
2022-10-22T17:50:53.640Z,96.24
2022-10-22T17:53:43.138Z,96.23
2022-10-22T17:56:32.758Z,96.49
2022-10-22T17:59:19.160Z,95.84
2022-10-22T18:02:04.927Z,95.81
2022-10-22T18:04:52.519Z,96.46
2022-10-22T18:07:38.206Z,96.28
2022-10-22T18:10:24.438Z,96.87
2022-10-22T18:13:09.929Z,96.95
2022-10-22T18:15:56.392Z,96.74
2022-10-22T18:18:44.993Z,96.80
2022-10-22T18:21:30.635Z,96.71
2022-10-22T18:24:16.820Z,96.49
2022-10-22T18:27:02.943Z,97.31
2022-10-22T18:29:51.708Z,96.66
2022-10-22T18:32:37.337Z,96.78
2022-10-22T18:35:22.431Z,96.41
2022-10-22T18:38:09.089Z,96.38
2022-10-22T18:40:54.374Z,96.76
2022-10-22T18:43:39.776Z,96.35
2022-10-22T18:46:26.533Z,96.99
2022-10-22T18:49:18.309Z,96.94
2022-10-22T18:52:04.016Z,96.63
2022-10-22T18:54:49.713Z,96.37
2022-10-22T18:57:35.244Z,96.11
2022-10-22T19:00:20.634Z,97.03
2022-10-22T19:03:06.230Z,96.76
2022-10-22T19:05:54.266Z,96.91
2022-10-22T19:08:42.298Z,96.55
2022-10-22T19:11:28.152Z,96.41
2022-10-22T19:14:14.994Z,96.32
2022-10-22T19:17:00.601Z,96.60
2022-10-22T19:19:46.072Z,96.01
2022-10-22T19:22:32.076Z,96.00
2022-10-22T19:25:17.350Z,96.28
2022-10-22T19:28:02.829Z,96.29
2022-10-22T19:30:48.269Z,96.62
2022-10-22T19:33:35.421Z,96.32
2022-10-22T19:36:24.349Z,96.34
2022-10-22T19:39:09.923Z,96.68
2022-10-22T19:41:58.212Z,96.45
2022-10-22T19:44:43.819Z,96.31
2022-10-22T19:47:29.387Z,96.03
2022-10-22T19:50:14.700Z,96.54
2022-10-22T19:53:01.563Z,96.79
2022-10-22T19:55:47.303Z,96.74
2022-10-22T19:58:33.144Z,96.34
2022-10-22T20:01:20.027Z,96.33
2022-10-22T20:04:05.400Z,96.41
2022-10-22T20:06:51.928Z,96.56
2022-10-22T20:09:37.301Z,96.68
2022-10-22T20:12:23.118Z,96.37
2022-10-22T20:15:09.482Z,96.85
2022-10-22T20:17:55.264Z,96.33
2022-10-22T20:20:40.594Z,96.58
2022-10-22T20:23:25.740Z,96.44
2022-10-22T20:26:12.735Z,96.85
2022-10-22T20:28:58.488Z,96.64
2022-10-22T20:31:43.832Z,96.51
2022-10-22T20:34:29.427Z,96.58
2022-10-22T20:37:14.891Z,96.91
2022-10-22T20:40:00.435Z,96.65
2022-10-22T20:42:47.311Z,96.75
2022-10-22T20:45:32.878Z,96.42
2022-10-22T20:48:18.440Z,96.38
2022-10-22T20:51:05.137Z,96.13
2022-10-22T20:53:50.536Z,96.25
2022-10-22T20:56:39.799Z,96.58
2022-10-22T20:59:32.511Z,95.98
2022-10-22T21:02:18.451Z,96.46
2022-10-22T21:05:04.170Z,96.29
2022-10-22T21:07:49.880Z,95.86
2022-10-22T21:10:36.029Z,96.18
2022-10-22T21:13:21.455Z,95.92
2022-10-22T21:16:11.729Z,95.74
2022-10-22T21:18:57.482Z,96.34
2022-10-22T21:21:42.948Z,96.37
2022-10-22T21:24:28.575Z,95.87
2022-10-22T21:27:13.873Z,96.31
2022-10-22T21:29:59.509Z,95.95
2022-10-22T21:32:44.874Z,96.08
2022-10-22T21:35:32.535Z,96.43
2022-10-22T21:38:18.347Z,95.87
2022-10-22T21:41:10.261Z,95.85
2022-10-22T21:43:56.511Z,96.24
2022-10-22T21:46:41.974Z,95.97
2022-10-22T21:49:27.702Z,95.91
2022-10-22T21:52:13.174Z,95.81
2022-10-22T21:54:58.699Z,96.07
2022-10-22T21:57:44.573Z,95.85
2022-10-22T22:00:30.078Z,96.02
2022-10-22T22:03:15.525Z,96.18
2022-10-22T22:06:02.373Z,95.88
2022-10-22T22:08:48.325Z,96.16
2022-10-22T22:11:34.098Z,96.14
2022-10-22T22:14:19.869Z,96.00
2022-10-22T22:17:05.388Z,96.27
2022-10-22T22:19:50.660Z,96.11
2022-10-22T22:22:36.856Z,95.84
2022-10-22T22:25:22.133Z,95.82
2022-10-22T22:28:07.552Z,95.93
2022-10-22T22:30:53.063Z,96.17
2022-10-22T22:33:38.429Z,95.67
2022-10-22T22:36:24.072Z,95.78
2022-10-22T22:39:13.786Z,95.94
2022-10-22T22:41:59.007Z,95.90
2022-10-22T22:44:44.507Z,96.25
2022-10-22T22:47:30.289Z,95.92
2022-10-22T22:50:15.561Z,96.02
2022-10-22T22:53:01.099Z,96.47
2022-10-22T22:55:46.536Z,96.35
2022-10-22T22:58:32.135Z,96.10
2022-10-22T23:01:26.906Z,96.18
2022-10-22T23:04:16.509Z,96.08
2022-10-22T23:07:02.255Z,96.18
2022-10-22T23:09:47.669Z,95.96
2022-10-22T23:12:33.044Z,96.02
2022-10-22T23:15:18.370Z,96.37
2022-10-22T23:18:04.051Z,95.97
2022-10-22T23:20:50.046Z,95.96
2022-10-22T23:23:35.381Z,96.28
2022-10-22T23:26:24.122Z,96.00
2022-10-22T23:29:19.319Z,95.92
2022-10-22T23:32:08.030Z,96.01
2022-10-22T23:34:54.865Z,95.84
2022-10-22T23:37:40.530Z,95.85
2022-10-22T23:40:26.366Z,95.92
2022-10-22T23:43:11.939Z,95.87
2022-10-22T23:45:57.561Z,95.71
2022-10-22T23:48:43.189Z,95.95
2022-10-22T23:51:28.923Z,95.99
2022-10-22T23:54:15.996Z,95.90
2022-10-22T23:57:01.753Z,95.96
2022-10-22T23:59:47.144Z,96.02
